KCVO - Corvallis, OR
Updated: Wed, 23-Aug-2017 6:35am PDT
Clear
Clear
 Wind from calm
Wind: Calm
Temperature: 55°F , 13°C
Dew Point: 54°F , 12°C
Humidity: 94%
Barometer: 30.04 inHg , 1017.3 hPa
Clouds: Clear
Visibility: 10 miles , 16 km
2017/08/23 13:35 KCVO 231335Z 00000KT 10SM CLR 13/12 A3004 RMK AO1